Time;durP1;ratioP1;P1;durP2;ratioP2;P2;SDS_P1;SDS_P2;PMS_P1;PMS_P2;Temp;Humidity;BMP_temperature;BMP_pressure;BME280_temperature;BME280_humidity;BME280_pressure;Samples;Min_cycle;Max_cycle;Signal;HPM_P1;HPM_P2
2023/11/17 00:01:51;;;;;;;18.25;9.93;;;;;;;10.51;71.57;101741.81;4992112;28;20030;-50
2023/11/17 00:04:16;;;;;;;18.95;10.30;;;;;;;10.54;71.25;101742.78;4990962;28;20053;-50
2023/11/17 00:06:42;;;;;;;18.20;9.75;;;;;;;10.56;71.12;101745.41;4992021;28;20493;-51
2023/11/17 00:09:10;;;;;;;17.23;10.20;;;;;;;10.49;71.46;101743.50;4992062;28;20061;-44
2023/11/17 00:11:36;;;;;;;16.60;9.55;;;;;;;10.58;71.18;101751.56;4991940;28;20220;-44
2023/11/17 00:14:03;;;;;;;17.52;10.00;;;;;;;10.62;71.06;101747.31;4990962;28;20519;-44
2023/11/17 00:16:28;;;;;;;18.77;9.88;;;;;;;10.60;71.23;101747.28;4992666;28;20046;-54
2023/11/17 00:18:54;;;;;;;18.10;10.48;;;;;;;10.61;71.15;101748.16;4995385;28;20042;-47
2023/11/17 00:21:19;;;;;;;20.50;10.70;;;;;;;10.63;71.13;101751.69;4996308;28;20567;-49
2023/11/17 00:23:45;;;;;;;18.23;10.32;;;;;;;10.64;71.28;101753.44;4992705;28;20061;-45
2023/11/17 00:26:11;;;;;;;17.35;10.15;;;;;;;10.66;71.37;101757.88;4991744;28;20613;-46
2023/11/17 00:28:39;;;;;;;18.02;9.30;;;;;;;10.74;71.15;101760.66;4991825;28;20125;-47
2023/11/17 00:31:09;;;;;;;19.00;9.88;;;;;;;10.72;70.87;101764.97;4991560;28;20077;-45
2023/11/17 00:33:40;;;;;;;17.27;10.10;;;;;;;10.69;71.41;101765.78;4991520;28;20101;-45
2023/11/17 00:36:06;;;;;;;19.88;10.07;;;;;;;10.69;71.34;101762.28;4992068;28;20117;-45
2023/11/17 00:38:32;;;;;;;15.85;9.85;;;;;;;10.72;71.16;101770.19;4991639;28;20114;-49
2023/11/17 00:40:59;;;;;;;18.73;10.65;;;;;;;10.72;71.15;101764.97;4991523;28;20034;-49
2023/11/17 00:43:25;;;;;;;16.90;10.40;;;;;;;10.66;71.40;101768.31;4991526;28;20098;-44
2023/11/17 00:45:57;;;;;;;17.42;10.00;;;;;;;10.67;71.40;101774.41;4992448;28;20137;-46
2023/11/17 00:48:23;;;;;;;17.67;9.93;;;;;;;10.80;70.84;101771.25;4991172;28;20042;-44
2023/11/17 00:50:48;;;;;;;19.05;9.98;;;;;;;10.80;71.01;101779.09;4991397;28;20081;-48
2023/11/17 00:53:15;;;;;;;17.25;9.70;;;;;;;10.70;70.92;101770.16;4990851;28;20528;-43
2023/11/17 00:55:40;;;;;;;18.08;10.20;;;;;;;10.71;71.08;101778.88;4989831;28;20113;-48
2023/11/17 00:58:08;;;;;;;19.60;10.05;;;;;;;10.69;71.40;101788.34;4990816;28;20466;-47
2023/11/17 01:00:33;;;;;;;17.77;10.10;;;;;;;10.70;71.40;101785.81;4982614;28;20452;-47
2023/11/17 01:02:59;;;;;;;19.05;9.60;;;;;;;10.72;70.84;101786.72;4990971;28;20038;-46
2023/11/17 01:05:25;;;;;;;16.90;9.80;;;;;;;10.78;71.01;101792.13;4990078;28;20524;-45
2023/11/17 01:07:50;;;;;;;19.55;9.50;;;;;;;10.81;71.26;101788.69;4991347;28;20050;-45
2023/11/17 01:10:15;;;;;;;16.42;10.05;;;;;;;10.81;71.16;101791.28;4990670;28;20034;-46
2023/11/17 01:12:41;;;;;;;19.75;10.55;;;;;;;10.60;72.09;101793.34;4991033;28;20076;-49
2023/11/17 01:15:07;;;;;;;18.45;10.38;;;;;;;10.52;72.69;101795.72;4991100;28;20046;-50
2023/11/17 01:17:33;;;;;;;21.52;10.60;;;;;;;10.53;72.60;101792.28;4990742;28;20058;-45
2023/11/17 01:19:58;;;;;;;20.38;10.95;;;;;;;10.67;72.15;101793.56;4991845;28;20062;-48
2023/11/17 01:22:24;;;;;;;18.27;10.38;;;;;;;10.76;71.59;101795.50;4990605;28;20038;-50
2023/11/17 01:24:49;;;;;;;22.35;10.57;;;;;;;10.67;71.90;101798.78;4991310;28;20058;-48
2023/11/17 01:27:15;;;;;;;18.48;10.25;;;;;;;10.55;72.49;101801.03;4990322;28;20027;-48
2023/11/17 01:29:41;;;;;;;21.02;10.63;;;;;;;10.42;72.93;101807.63;4991129;28;20031;-47
2023/11/17 01:32:07;;;;;;;19.15;10.73;;;;;;;10.43;72.74;101803.31;4990840;28;20042;-46
2023/11/17 01:34:32;;;;;;;18.63;10.18;;;;;;;10.68;72.20;101810.94;4990272;28;20032;-46
2023/11/17 01:36:58;;;;;;;19.20;10.70;;;;;;;10.74;71.81;101808.50;4990521;28;20065;-49
2023/11/17 01:39:24;;;;;;;18.98;10.07;;;;;;;10.75;71.56;101812.00;4990652;28;20054;-45
2023/11/17 01:41:50;;;;;;;17.10;10.10;;;;;;;10.63;71.81;101811.66;4991912;28;20081;-46
2023/11/17 01:44:16;;;;;;;17.17;9.85;;;;;;;10.71;71.46;101817.97;4990461;28;20038;-50
2023/11/17 01:46:44;;;;;;;18.05;9.88;;;;;;;10.72;71.83;101818.03;4992210;28;20060;-45
2023/11/17 01:49:12;;;;;;;20.90;9.35;;;;;;;10.71;71.49;101824.09;4990779;28;20042;-45
2023/11/17 01:51:38;;;;;;;18.42;9.25;;;;;;;10.65;71.42;101818.69;4992358;28;20030;-48
2023/11/17 01:54:04;;;;;;;20.77;9.77;;;;;;;10.61;71.31;101819.47;4990894;28;20030;-48
2023/11/17 01:56:30;;;;;;;17.48;9.35;;;;;;;10.62;71.46;101823.81;4990047;28;20042;-47
2023/11/17 01:58:56;;;;;;;19.10;9.52;;;;;;;10.61;71.51;101824.69;4990333;28;20034;-47
2023/11/17 02:01:21;;;;;;;18.15;9.38;;;;;;;10.62;71.03;101825.53;4989895;28;20500;-47
2023/11/17 02:03:47;;;;;;;19.15;9.55;;;;;;;10.56;71.52;101821.91;4990190;28;20030;-49
2023/11/17 02:06:32;;;;;;;22.00;10.13;;;;;;;10.55;71.57;101830.56;4989653;28;20038;-48
2023/11/17 02:09:02;;;;;;;18.70;9.18;;;;;;;10.63;71.02;101827.31;4990271;28;20066;-48
2023/11/17 02:11:44;;;;;;;23.10;10.52;;;;;;;10.57;70.99;101828.91;4989960;28;20412;-49
2023/11/17 02:14:18;;;;;;;27.77;10.20;;;;;;;10.65;71.11;101829.13;4990218;28;20031;-52
2023/11/17 02:16:46;;;;;;;27.90;10.13;;;;;;;10.67;71.16;101827.47;4990526;28;20034;-51
2023/11/17 02:19:26;;;;;;;24.95;10.02;;;;;;;10.65;71.02;101830.84;4990681;28;20479;-50
2023/11/17 02:21:54;;;;;;;19.73;9.00;;;;;;;10.64;71.31;101829.06;4992528;28;20034;-50
2023/11/17 02:24:20;;;;;;;20.73;8.07;;;;;;;10.71;71.33;101828.41;4993541;28;20066;-48
2023/11/17 02:27:19;;;;;;;21.58;8.35;;;;;;;10.78;70.91;101832.97;4995554;28;20035;-43
2023/11/17 02:29:47;;;;;;;18.98;8.05;;;;;;;10.76;71.07;101829.41;4994306;28;20043;-50
2023/11/17 02:32:16;;;;;;;17.70;8.70;;;;;;;10.80;71.21;101821.72;4994108;28;20038;-48
2023/11/17 02:34:44;;;;;;;17.83;8.63;;;;;;;10.82;71.00;101821.75;4994220;28;20041;-45
2023/11/17 02:37:11;;;;;;;21.17;8.65;;;;;;;10.79;70.88;101826.91;4993590;28;20092;-47
2023/11/17 02:39:38;;;;;;;15.35;8.35;;;;;;;10.88;71.29;101820.22;4994551;28;20038;-46
2023/11/17 02:42:10;;;;;;;15.20;7.85;;;;;;;10.85;71.05;101816.66;4994508;28;20031;-48
2023/11/17 02:44:39;;;;;;;15.20;8.02;;;;;;;10.81;70.63;101810.44;4994249;28;20031;-44
2023/11/17 02:47:08;;;;;;;16.25;8.68;;;;;;;10.79;70.65;101811.25;4994392;28;20038;-48
2023/11/17 02:49:42;;;;;;;14.95;7.70;;;;;;;10.79;70.58;101809.53;4994001;28;20487;-48
2023/11/17 02:52:19;;;;;;;14.43;7.55;;;;;;;10.79;70.59;101812.16;4992896;28;20049;-45
2023/11/17 02:54:45;;;;;;;19.40;8.88;;;;;;;10.69;70.95;101806.63;4993258;28;20408;-45
2023/11/17 02:57:12;;;;;;;17.50;7.57;;;;;;;10.73;70.79;101804.16;4993404;28;20186;-48
2023/11/17 02:59:38;;;;;;;16.20;8.18;;;;;;;10.73;70.40;101801.56;4993623;28;20030;-49
2023/11/17 03:02:05;;;;;;;15.38;7.50;;;;;;;10.71;70.77;101800.59;4993778;28;20045;-51
2023/11/17 03:04:31;;;;;;;14.45;8.15;;;;;;;10.70;70.53;101795.34;4990367;28;20037;-48
2023/11/17 03:06:57;;;;;;;16.48;7.78;;;;;;;10.67;70.29;101804.00;4991715;28;20042;-47
2023/11/17 03:09:23;;;;;;;17.05;8.27;;;;;;;10.63;70.55;101799.50;4991635;28;20544;-47
2023/11/17 03:11:59;;;;;;;17.73;8.02;;;;;;;10.70;70.52;101805.78;4993202;28;20036;-48
2023/11/17 03:14:25;;;;;;;14.93;7.63;;;;;;;10.67;70.57;101805.72;4992716;28;20038;-49
2023/11/17 03:16:58;;;;;;;13.10;7.63;;;;;;;10.65;70.61;101805.66;4993400;28;20046;-46
2023/11/17 03:19:28;;;;;;;15.63;7.72;;;;;;;10.72;70.13;101805.00;4992904;28;20401;-46
2023/11/17 03:21:57;;;;;;;16.70;8.50;;;;;;;10.69;70.17;101798.78;4993978;28;20038;-48
2023/11/17 03:24:24;;;;;;;15.70;7.85;;;;;;;10.76;70.48;101800.72;4993432;28;20045;-47
2023/11/17 03:26:52;;;;;;;15.57;7.72;;;;;;;10.75;70.23;101797.25;4991698;28;20125;-45
2023/11/17 03:29:18;;;;;;;14.20;8.07;;;;;;;10.72;70.63;101798.88;4992969;28;20038;-47
2023/11/17 03:31:49;;;;;;;18.20;7.72;;;;;;;10.76;70.51;101809.44;4993606;28;20030;-44
2023/11/17 03:34:23;;;;;;;16.95;7.65;;;;;;;10.77;70.31;101799.91;4993091;28;20034;-45
2023/11/17 03:36:57;;;;;;;13.85;7.53;;;;;;;10.74;70.29;101805.91;4993065;28;20034;-45
2023/11/17 03:39:26;;;;;;;;;;;;;;;10.67;70.78;101809.19;4992632;28;20034;-44
2023/11/17 03:41:52;;;;;;;11.75;7.03;;;;;;;10.66;70.56;101807.44;4992580;28;19996;-50
2023/11/17 03:44:18;;;;;;;13.85;7.45;;;;;;;10.71;70.10;101804.94;4992355;28;20177;-51
2023/11/17 03:46:46;;;;;;;15.93;7.30;;;;;;;10.70;69.84;101800.56;4992572;28;20046;-46
2023/11/17 03:49:12;;;;;;;12.77;6.97;;;;;;;10.68;69.96;101797.00;4992292;28;20501;-47
2023/11/17 03:51:37;;;;;;;15.07;7.15;;;;;;;10.66;70.18;101796.13;4992402;28;20543;-48
2023/11/17 03:54:05;;;;;;;12.98;7.00;;;;;;;10.66;69.76;101798.72;4992523;28;20035;-50
2023/11/17 03:56:31;;;;;;;16.45;7.32;;;;;;;10.61;70.01;101801.22;4991630;28;20031;-48
2023/11/17 03:58:56;;;;;;;14.20;7.13;;;;;;;10.57;70.00;101800.22;4992313;28;20049;-51
2023/11/17 04:01:21;;;;;;;13.85;7.22;;;;;;;10.60;69.81;101796.81;4990467;28;20034;-44
2023/11/17 04:03:47;;;;;;;14.18;7.00;;;;;;;10.62;69.94;101802.94;4992532;28;20037;-49
2023/11/17 04:06:12;;;;;;;13.50;6.90;;;;;;;10.63;69.89;101796.00;4991694;28;20049;-46
2023/11/17 04:08:38;;;;;;;12.18;6.80;;;;;;;10.65;70.12;101799.56;4992301;28;20121;-45
2023/11/17 04:11:03;;;;;;;12.35;6.10;;;;;;;10.64;70.24;101803.00;4990942;28;20496;-47
2023/11/17 04:13:31;;;;;;;13.60;7.03;;;;;;;10.64;69.92;101809.09;4991772;28;20589;-51
2023/11/17 04:15:59;;;;;;;11.35;6.30;;;;;;;10.62;69.86;101812.50;4992111;28;20042;-48
2023/11/17 04:18:25;;;;;;;13.23;6.85;;;;;;;10.58;70.12;101804.59;4991406;28;20042;-46
2023/11/17 04:20:53;;;;;;;12.73;6.47;;;;;;;10.51;69.95;101809.59;4992590;28;20046;-46
2023/11/17 04:23:18;;;;;;;11.55;6.65;;;;;;;10.47;69.78;101816.47;4993157;28;20041;-46
2023/11/17 04:25:43;;;;;;;14.48;6.80;;;;;;;10.49;69.75;101813.91;4992764;28;20121;-49
2023/11/17 04:28:09;;;;;;;12.48;6.38;;;;;;;10.49;69.84;101813.91;4998048;28;20042;-47
2023/11/17 04:30:34;;;;;;;11.68;6.38;;;;;;;10.49;70.01;101816.50;4998928;28;20030;-54
2023/11/17 04:32:59;;;;;;;11.07;6.70;;;;;;;10.44;70.16;101816.34;4995124;28;20117;-45
2023/11/17 04:35:25;;;;;;;13.20;6.85;;;;;;;10.40;70.31;101819.72;4992359;28;20034;-46
2023/11/17 04:37:50;;;;;;;11.50;6.03;;;;;;;10.45;69.96;101820.72;4991633;28;20046;-48
2023/11/17 04:40:16;;;;;;;11.68;6.22;;;;;;;10.42;70.14;101818.06;4991254;28;20412;-47
2023/11/17 04:42:41;;;;;;;12.20;6.90;;;;;;;10.38;69.99;101820.50;4992078;28;20041;-46
2023/11/17 04:45:10;;;;;;;10.55;6.50;;;;;;;10.28;70.62;101831.50;4991756;28;20049;-47
2023/11/17 04:47:36;;;;;;;12.43;6.85;;;;;;;10.27;70.31;101830.63;4991729;28;20498;-46
2023/11/17 04:50:02;;;;;;;16.40;6.50;;;;;;;10.29;70.08;101835.88;4991390;28;20648;-44
2023/11/17 04:52:27;;;;;;;17.60;6.95;;;;;;;10.28;70.00;101826.28;4991729;28;20117;-46
2023/11/17 04:54:53;;;;;;;14.20;7.10;;;;;;;10.26;70.01;101833.16;4991977;28;20056;-47
2023/11/17 04:57:18;;;;;;;10.93;6.32;;;;;;;10.25;69.90;101834.00;4991575;28;20038;-47
2023/11/17 04:59:45;;;;;;;12.30;6.68;;;;;;;10.22;69.71;101829.59;4992096;28;20503;-50
2023/11/17 05:02:10;;;;;;;12.20;6.55;;;;;;;10.20;70.15;101830.38;4992027;28;20026;-45
2023/11/17 05:04:37;;;;;;;12.85;7.40;;;;;;;10.08;70.34;101829.16;4990970;28;20034;-45
2023/11/17 05:07:02;;;;;;;16.58;6.53;;;;;;;10.06;70.26;101837.78;4991071;28;20382;-47
2023/11/17 05:09:28;;;;;;;13.35;6.80;;;;;;;10.06;70.12;101833.41;4990303;28;20046;-49
2023/11/17 05:11:53;;;;;;;12.43;6.95;;;;;;;10.06;70.06;101829.97;4990890;28;20038;-47
2023/11/17 05:14:18;;;;;;;13.68;6.65;;;;;;;10.09;70.01;101832.63;4990612;28;20185;-48
2023/11/17 05:16:45;;;;;;;11.90;6.60;;;;;;;10.11;70.17;101838.78;4990853;28;20034;-49
2023/11/17 05:19:11;;;;;;;13.13;7.82;;;;;;;10.03;70.89;101835.06;4990282;28;20057;-47
2023/11/17 05:21:37;;;;;;;12.23;6.93;;;;;;;10.07;70.72;101839.50;4990858;28;20468;-48
2023/11/17 05:24:03;;;;;;;14.27;6.78;;;;;;;10.09;71.08;101846.56;4990640;28;20038;-46
2023/11/17 05:26:28;;;;;;;13.35;7.13;;;;;;;10.09;70.70;101843.94;4990201;28;20113;-49
2023/11/17 05:28:53;;;;;;;13.27;7.30;;;;;;;10.14;70.87;101846.69;4990627;28;20030;-47
2023/11/17 05:31:20;;;;;;;13.65;7.38;;;;;;;10.14;70.56;101846.69;4990128;28;20456;-45
2023/11/17 05:33:45;;;;;;;14.07;7.55;;;;;;;10.18;70.66;101848.59;4990805;28;20121;-48
2023/11/17 05:36:11;;;;;;;15.70;7.95;;;;;;;10.15;70.56;101857.16;4989812;28;20584;-47
2023/11/17 05:38:38;;;;;;;14.60;7.55;;;;;;;10.16;70.61;101845.94;4989009;28;20034;-48
2023/11/17 05:41:05;;;;;;;19.02;8.57;;;;;;;10.14;70.41;101852.78;4990504;28;20042;-46
2023/11/17 05:43:30;;;;;;;17.25;8.43;;;;;;;10.16;70.36;101858.97;4989981;28;20026;-45
2023/11/17 05:45:59;;;;;;;20.88;8.38;;;;;;;10.13;70.58;101858.81;4990463;28;20049;-46
2023/11/17 05:48:25;;;;;;;16.70;8.38;;;;;;;10.06;70.43;101856.88;4989928;28;20038;-49
2023/11/17 05:50:50;;;;;;;16.17;8.32;;;;;;;10.06;70.23;101859.47;4990582;28;20088;-45
2023/11/17 05:53:16;;;;;;;16.15;8.30;;;;;;;10.05;70.23;101862.94;4990081;28;20042;-45
2023/11/17 05:55:41;;;;;;;16.00;8.18;;;;;;;10.01;70.45;101855.84;4990652;28;20033;-46
2023/11/17 05:58:07;;;;;;;17.55;8.38;;;;;;;10.09;70.29;101858.69;4990694;28;20416;-49
2023/11/17 06:00:33;;;;;;;19.17;7.93;;;;;;;10.08;70.34;101868.22;4990861;28;20461;-44
2023/11/17 06:02:58;;;;;;;19.40;8.60;;;;;;;10.07;69.96;101865.56;4994997;28;20042;-47
2023/11/17 06:05:24;;;;;;;14.45;7.43;;;;;;;10.07;70.16;101876.00;4993641;28;20042;-52
2023/11/17 06:07:49;;;;;;;18.85;8.60;;;;;;;10.07;70.59;101879.47;4994246;28;20037;-47
2023/11/17 06:10:14;;;;;;;19.25;8.73;;;;;;;10.10;70.23;101877.00;4992449;28;20128;-48
2023/11/17 06:12:41;;;;;;;22.23;9.57;;;;;;;10.13;70.34;101874.47;4994615;28;20026;-45
2023/11/17 06:15:07;;;;;;;19.83;9.10;;;;;;;10.18;70.46;101877.28;4994199;28;20054;-50
2023/11/17 06:17:33;;;;;;;23.20;9.82;;;;;;;10.17;70.99;101883.31;4993823;28;20046;-48
2023/11/17 06:20:00;;;;;;;23.98;10.02;;;;;;;10.19;70.87;101879.00;4994595;28;20526;-48
2023/11/17 06:22:27;;;;;;;18.48;9.90;;;;;;;10.28;71.08;101883.63;4995042;28;20038;-44
2023/11/17 06:24:53;;;;;;;24.55;11.48;;;;;;;10.36;71.13;101890.84;4995042;28;20042;-48
2023/11/17 06:27:19;;;;;;;24.48;10.77;;;;;;;10.34;70.98;101884.69;4995605;28;20425;-47
2023/11/17 06:29:45;;;;;;;21.13;10.73;;;;;;;10.40;71.56;101890.09;4995114;28;20034;-49
2023/11/17 06:32:11;;;;;;;25.40;10.73;;;;;;;10.44;71.07;101891.06;4995376;28;20045;-45
2023/11/17 06:34:36;;;;;;;22.88;11.25;;;;;;;10.48;71.07;101892.94;4996774;28;20036;-45
2023/11/17 06:37:02;;;;;;;23.83;12.18;;;;;;;10.48;71.31;101891.22;4997398;28;20038;-47
2023/11/17 06:39:29;;;;;;;26.00;11.85;;;;;;;10.51;71.17;101891.31;4993498;28;20038;-50
2023/11/17 06:41:55;;;;;;;27.83;12.35;;;;;;;10.57;71.44;101888.88;4995083;28;20035;-45
2023/11/17 06:44:22;;;;;;;30.33;12.93;;;;;;;10.58;71.32;101885.44;4994145;28;20038;-49
2023/11/17 06:46:49;;;;;;;24.95;12.30;;;;;;;10.60;71.29;101889.81;4994447;28;20061;-45
2023/11/17 06:49:18;;;;;;;23.90;12.27;;;;;;;10.61;70.96;101891.59;4993584;28;20085;-49
2023/11/17 06:51:50;;;;;;;22.33;11.45;;;;;;;10.67;70.85;101891.78;4993657;28;20030;-48
2023/11/17 06:54:17;;;;;;;22.48;11.30;;;;;;;10.66;70.64;101898.72;4992786;28;20034;-49
2023/11/17 06:56:46;;;;;;;24.65;11.50;;;;;;;10.65;70.50;101899.53;4993388;28;20030;-45
2023/11/17 06:59:14;;;;;;;24.90;11.48;;;;;;;10.71;70.61;101898.84;4992591;28;20034;-48
2023/11/17 07:01:40;;;;;;;22.55;11.68;;;;;;;10.72;70.76;101900.59;4993810;28;20038;-45
2023/11/17 07:04:07;;;;;;;24.23;12.20;;;;;;;10.74;70.49;101898.91;4983923;28;20405;-45
2023/11/17 07:06:34;;;;;;;24.85;12.57;;;;;;;10.62;71.07;101906.38;4973218;28;20502;-49
2023/11/17 07:09:00;;;;;;;25.73;11.95;;;;;;;10.73;70.66;101907.59;4973634;28;20065;-51
2023/11/17 07:11:25;;;;;;;24.75;12.30;;;;;;;10.72;70.69;101906.72;4972430;28;20509;-46
2023/11/17 07:13:55;;;;;;;29.73;12.93;;;;;;;10.71;70.47;101919.69;4973363;28;20069;-48
2023/11/17 07:16:21;;;;;;;28.40;13.32;;;;;;;10.70;70.51;101916.19;4972942;28;20042;-47
2023/11/17 07:18:47;;;;;;;26.75;13.00;;;;;;;10.72;70.75;101911.94;4973442;28;20365;-45
2023/11/17 07:21:13;;;;;;;27.52;13.00;;;;;;;10.73;70.63;101911.09;4973050;28;20461;-46
2023/11/17 07:23:43;;;;;;;26.02;13.07;;;;;;;10.75;70.57;101919.81;4973526;28;20034;-48
2023/11/17 07:26:18;;;;;;;25.48;13.18;;;;;;;10.76;70.56;101915.50;4972609;28;20039;-49
2023/11/17 07:28:47;;;;;;;25.33;13.20;;;;;;;10.78;70.47;101917.31;4973340;28;20035;-52
2023/11/17 07:31:15;;;;;;;25.60;12.70;;;;;;;10.79;70.48;101920.81;4972999;28;20118;-47
2023/11/17 07:33:41;;;;;;;27.23;12.68;;;;;;;10.79;70.16;101921.69;4973469;28;20440;-44
2023/11/17 07:36:08;;;;;;;30.25;13.20;;;;;;;10.75;69.97;101927.66;4973548;28;20162;-47
2023/11/17 07:38:35;;;;;;;23.73;12.38;;;;;;;10.81;70.13;101925.22;4973022;28;20043;-51
2023/11/17 07:41:00;;;;;;;26.73;13.48;;;;;;;10.72;69.86;101922.34;4973292;28;20035;-48
2023/11/17 07:43:26;;;;;;;23.83;12.85;;;;;;;10.75;70.07;101922.44;4972698;28;20043;-44
2023/11/17 07:45:51;;;;;;;26.63;13.23;;;;;;;10.82;69.46;101926.09;4972968;28;20082;-44
2023/11/17 07:48:18;;;;;;;25.95;13.20;;;;;;;10.80;70.05;101933.88;4972254;28;20039;-47
2023/11/17 07:50:43;;;;;;;25.42;13.13;;;;;;;10.87;70.31;101934.94;4973589;28;20030;-46
2023/11/17 07:53:08;;;;;;;26.27;13.27;;;;;;;10.92;70.35;101929.00;4973490;28;20039;-51
2023/11/17 07:55:34;;;;;;;25.27;13.60;;;;;;;10.98;70.61;101931.78;4972800;28;20034;-46
2023/11/17 07:58:01;;;;;;;30.92;14.25;;;;;;;11.00;70.36;101942.28;4973262;28;20412;-47
2023/11/17 08:00:28;;;;;;;27.85;13.63;;;;;;;11.17;70.47;101934.94;4973665;28;20039;-45
2023/11/17 08:02:54;;;;;;;27.70;13.68;;;;;;;11.23;70.39;101938.59;4973652;28;20046;-48
2023/11/17 08:05:20;;;;;;;29.60;14.75;;;;;;;11.13;69.89;101939.19;4973092;28;20122;-53
2023/11/17 08:07:46;;;;;;;28.90;14.77;;;;;;;11.22;69.70;101943.78;4974332;28;20027;-45
2023/11/17 08:10:11;;;;;;;27.50;14.48;;;;;;;11.37;69.69;101947.69;4973834;28;20445;-50
2023/11/17 08:12:37;;;;;;;29.30;14.95;;;;;;;11.38;68.94;101946.84;4973473;28;20406;-46
2023/11/17 08:15:05;;;;;;;27.50;14.30;;;;;;;11.40;69.13;101945.16;4972748;28;20042;-49
2023/11/17 08:17:31;;;;;;;27.95;14.27;;;;;;;11.51;68.95;101948.06;4971812;28;20043;-46
2023/11/17 08:19:58;;;;;;;26.30;13.38;;;;;;;11.66;68.98;101950.19;4972455;28;20039;-46
2023/11/17 08:22:24;;;;;;;25.77;13.95;;;;;;;11.77;68.83;101944.41;4971489;28;20038;-44
2023/11/17 08:24:50;;;;;;;25.15;13.18;;;;;;;11.65;68.24;101951.91;4971520;28;20063;-46
2023/11/17 08:27:16;;;;;;;29.50;13.65;;;;;;;11.65;69.07;101964.09;4954941;28;20150;-53
2023/11/17 08:29:42;;;;;;;26.77;13.70;;;;;;;11.74;67.93;101954.81;4973031;28;20146;-45
2023/11/17 08:32:07;;;;;;;30.17;13.93;;;;;;;11.83;68.00;101958.50;4973315;28;20054;-46
2023/11/17 08:34:33;;;;;;;26.95;13.77;;;;;;;11.93;67.83;101956.16;4972320;28;20035;-50
2023/11/17 08:36:59;;;;;;;31.25;14.00;;;;;;;11.96;67.31;101961.44;4974951;28;20031;-49
2023/11/17 08:39:27;;;;;;;29.95;13.63;;;;;;;12.10;67.22;101962.69;4977169;28;20129;-45
2023/11/17 08:41:56;;;;;;;25.90;14.07;;;;;;;12.11;67.02;101964.47;4973351;28;20062;-50
2023/11/17 08:44:22;;;;;;;25.17;13.77;;;;;;;12.31;66.37;101956.22;4971545;28;20039;-47
2023/11/17 08:46:49;;;;;;;29.88;13.80;;;;;;;12.39;66.10;101957.25;4971953;28;20386;-43
2023/11/17 08:49:16;;;;;;;24.35;13.70;;;;;;;12.37;65.51;101959.84;4970973;28;20035;-48
2023/11/17 08:51:41;;;;;;;27.75;13.52;;;;;;;12.54;65.37;101968.97;4972036;28;20039;-48
2023/11/17 08:54:07;;;;;;;23.33;13.68;;;;;;;12.58;64.91;101967.28;4971551;28;20037;-46
2023/11/17 08:56:35;;;;;;;26.10;13.70;;;;;;;12.74;65.00;101963.28;4971399;28;20041;-47
2023/11/17 08:59:02;;;;;;;26.63;13.63;;;;;;;12.83;64.63;101969.59;4971607;28;20043;-46
2023/11/17 09:01:28;;;;;;;27.63;13.70;;;;;;;13.08;64.48;101970.13;4954088;28;20581;-49
2023/11/17 09:03:53;;;;;;;25.08;13.60;;;;;;;13.22;64.56;101977.44;4971600;28;20117;-46
2023/11/17 09:06:18;;;;;;;26.95;13.52;;;;;;;13.07;63.06;101973.56;4970619;28;20078;-45
2023/11/17 09:08:43;;;;;;;23.02;12.57;;;;;;;12.73;64.08;101983.34;4972131;28;20493;-44
2023/11/17 09:11:09;;;;;;;25.27;13.02;;;;;;;13.19;63.54;101985.22;4971205;28;20062;-50
2023/11/17 09:13:34;;;;;;;27.95;13.18;;;;;;;12.84;63.43;101984.47;4971410;28;20070;-46
2023/11/17 09:16:00;;;;;;;24.88;13.85;;;;;;;13.09;64.03;101988.47;4970541;28;20030;-49
2023/11/17 09:18:25;;;;;;;26.27;13.43;;;;;;;13.31;63.34;101985.47;4971174;28;20604;-45
2023/11/17 09:20:50;;;;;;;22.90;13.10;;;;;;;13.16;62.46;101994.75;4971398;28;20041;-49
2023/11/17 09:23:17;;;;;;;26.52;13.60;;;;;;;13.16;63.29;102000.00;4971088;28;20027;-47
2023/11/17 09:25:42;;;;;;;21.55;12.57;;;;;;;13.43;62.83;101997.03;4970624;28;20035;-47
2023/11/17 09:28:08;;;;;;;28.60;12.65;;;;;;;13.33;62.56;102004.72;4970707;28;20114;-44
2023/11/17 09:30:33;;;;;;;22.60;12.60;;;;;;;13.46;62.42;101999.72;4971327;28;20346;-47
2023/11/17 09:33:02;;;;;;;21.92;12.73;;;;;;;13.71;62.36;102004.59;4970709;28;20035;-51
2023/11/17 09:35:28;;;;;;;25.25;13.15;;;;;;;13.54;62.27;102008.63;4970818;28;20545;-46
2023/11/17 09:38:04;;;;;;;22.70;13.50;;;;;;;13.57;62.10;102020.03;4970571;28;20041;-50
2023/11/17 09:40:33;;;;;;;24.45;13.77;;;;;;;13.61;61.89;102019.22;4971022;28;20038;-50
2023/11/17 09:43:20;;;;;;;22.85;13.13;;;;;;;13.69;61.28;102014.16;4970964;28;20034;-44
2023/11/17 09:45:46;;;;;;;27.58;14.25;;;;;;;13.20;62.18;102030.63;4971026;28;20031;-46
2023/11/17 09:48:13;;;;;;;23.60;14.07;;;;;;;13.65;61.61;102026.31;4970466;28;20046;-47
2023/11/17 09:50:40;;;;;;;24.75;14.63;;;;;;;13.41;61.76;102031.06;4971286;28;20082;-48
2023/11/17 09:53:09;;;;;;;29.35;14.73;;;;;;;13.72;60.86;102032.56;4970648;28;20046;-52
2023/11/17 09:55:37;;;;;;;25.73;14.27;;;;;;;13.82;61.42;102039.72;4970852;28;20031;-50
2023/11/17 09:58:06;;;;;;;23.13;14.10;;;;;;;13.82;61.13;102038.00;4970440;28;20379;-45
2023/11/17 10:00:33;;;;;;;24.88;14.27;;;;;;;13.99;61.22;102027.81;4970997;28;20039;-45
2023/11/17 10:03:02;;;;;;;25.00;14.68;;;;;;;14.02;61.35;102033.13;4970351;28;20041;-48
2023/11/17 10:05:33;;;;;;;27.52;14.82;;;;;;;13.87;61.90;102037.19;4970553;28;20090;-45
2023/11/17 10:08:06;;;;;;;24.35;13.63;;;;;;;13.82;61.09;102034.50;4970411;28;20549;-48
2023/11/17 10:10:36;;;;;;;26.88;13.90;;;;;;;13.98;60.67;102038.25;4970829;28;20041;-46
2023/11/17 10:13:06;;;;;;;28.67;13.80;;;;;;;13.38;61.63;102041.47;4970231;28;20417;-49
2023/11/17 10:15:35;;;;;;;25.17;13.73;;;;;;;13.56;60.86;102048.81;4970878;28;20034;-46
2023/11/17 10:18:07;;;;;;;25.73;12.80;;;;;;;13.51;61.77;102043.50;4969988;28;20131;-49
2023/11/17 10:20:37;;;;;;;20.58;10.60;;;;;;;13.61;60.11;102048.06;4971073;28;20031;-45
2023/11/17 10:23:04;;;;;;;16.65;9.50;;;;;;;13.67;59.16;102047.28;4970376;28;20489;-45
2023/11/17 10:25:30;;;;;;;16.33;8.82;;;;;;;13.78;58.53;102057.13;4970796;28;20041;-46
2023/11/17 10:27:57;;;;;;;23.38;9.80;;;;;;;13.53;59.26;102057.53;4970625;28;20034;-44
2023/11/17 10:30:30;;;;;;;17.75;9.82;;;;;;;13.48;59.35;102056.53;4953447;28;20830;-44
2023/11/17 10:33:23;;;;;;;18.48;9.52;;;;;;;13.80;58.88;102051.91;4970608;28;20046;-49
2023/11/17 10:36:12;;;;;;;18.67;9.32;;;;;;;14.00;59.17;102050.56;4970742;28;20457;-47
2023/11/17 10:38:45;;;;;;;16.77;8.73;;;;;;;13.64;59.06;102056.00;4970634;28;20335;-45
2023/11/17 10:41:20;;;;;;;9.82;5.97;;;;;;;13.28;58.38;102058.75;4953954;28;20039;-47
2023/11/17 10:43:49;;;;;;;10.85;4.30;;;;;;;13.28;55.31;102060.47;4971802;28;20039;-45
2023/11/17 10:46:16;;;;;;;6.07;3.70;;;;;;;13.54;54.99;102056.66;4970673;28;20027;-50
2023/11/17 10:48:42;;;;;;;7.93;4.00;;;;;;;13.87;54.27;102052.91;4974048;28;20042;-47
2023/11/17 10:51:10;;;;;;;5.65;3.40;;;;;;;13.70;53.04;102055.22;4974023;28;20409;-46
2023/11/17 10:53:36;;;;;;;6.97;4.00;;;;;;;13.87;53.21;102059.03;4957814;28;20034;-45
2023/11/17 10:56:01;;;;;;;7.47;3.63;;;;;;;14.12;53.17;102065.63;4973739;28;20443;-44
2023/11/17 10:58:27;;;;;;;7.75;4.00;;;;;;;13.90;53.16;102069.59;4974309;28;20046;-49
2023/11/17 11:00:56;;;;;;;6.65;4.25;;;;;;;13.62;52.69;102069.91;4974028;28;20130;-52
2023/11/17 11:03:22;;;;;;;7.60;4.45;;;;;;;13.68;53.05;102068.28;4974036;28;20031;-49
2023/11/17 11:05:48;;;;;;;8.52;4.65;;;;;;;13.53;53.87;102075.88;4974242;28;20090;-46
2023/11/17 11:08:18;;;;;;;8.25;4.68;;;;;;;13.75;53.79;102064.06;4973628;28;20324;-47
2023/11/17 11:10:53;;;;;;;8.27;4.80;;;;;;;13.34;54.61;102069.34;4974247;28;20027;-49
2023/11/17 11:13:29;;;;;;;8.48;4.47;;;;;;;13.89;53.63;102066.94;4974585;28;20039;-44
2023/11/17 11:16:05;;;;;;;8.77;4.60;;;;;;;14.01;53.69;102069.78;4975474;28;20101;-46